Terminal Aerodrome Forecast
Issued by NWS

Home | Current Version | Previous Version | Graphics & Text | Print | Product List | Glossary On
Versions: 1 2 3 4 5 6 7 8 9 10 11 12 13 14
000
FTUS45 KGGW 221121
TAFSDY
TAF
KSDY 221121Z 2212/2312 05009KT P6SM OVC040
     FM221500 07011KT P6SM VCSH OVC050
     FM221800 08014G22KT P6SM -RA OVC050
     FM230800 09012G20KT P6SM VCSH OVC030=

USA.gov is the U.S. government's official web portal to all federal, state and local government web resources and services.